Terminal Aerodrome Forecast
Issued by NWS Paducah, KY

Current Version | Previous Version | Text Only | Print | Product List | Glossary On
Versions: 1 2 3 4 5 6 7 8 9 10 11 12 13 14 15 16 17 18 19 20 21 22 23 24 25 26 27 28 29 30
000
FTUS43 KPAH 302320
TAFPAH
TAF
KPAH 302320Z 3100/3124 29004KT P6SM SCT040
     FM310100 VRB02KT P6SM FEW060 SCT150
     FM310700 00000KT 4SM BR SCT250
      TEMPO 3108/3112 2SM BR
     FM311300 20005KT P6SM FEW020=

USA.gov is the U.S. government's official web portal to all federal, state and local government web resources and services.